createdAt,value
2023-01-10T00:02:23.442Z,93.48
2023-01-10T00:04:50.130Z,92.69
2023-01-10T00:07:16.763Z,93.29
2023-01-10T00:09:43.708Z,92.08
2023-01-10T00:14:46.715Z,91.18
2023-01-10T00:17:13.413Z,92.34
2023-01-10T00:19:40.179Z,92.47
2023-01-10T00:22:08.335Z,92.05
2023-01-10T00:24:35.597Z,92.31
2023-01-10T00:27:03.211Z,92.29
2023-01-10T00:29:35.430Z,91.65
2023-01-10T00:32:02.393Z,92.46
2023-01-10T00:34:29.073Z,92.63
2023-01-10T00:36:55.692Z,92.39
2023-01-10T00:39:24.706Z,93.72
2023-01-10T00:42:10.365Z,93.28
2023-01-10T00:44:37.004Z,92.62
2023-01-10T00:47:03.879Z,93.08
2023-01-10T00:49:30.659Z,92.53
2023-01-10T00:51:58.495Z,93.16
2023-01-10T00:54:26.044Z,92.31
2023-01-10T00:56:52.805Z,92.97
2023-01-10T00:59:19.441Z,92.93
2023-01-10T01:01:46.301Z,93.01
2023-01-10T01:04:13.071Z,91.92
2023-01-10T01:06:39.760Z,91.87
2023-01-10T01:09:06.441Z,91.78
2023-01-10T01:11:33.110Z,91.35
2023-01-10T01:13:59.767Z,91.72
2023-01-10T01:16:26.473Z,91.75
2023-01-10T01:18:53.104Z,91.26
2023-01-10T01:21:22.434Z,91.21
2023-01-10T01:23:51.199Z,92.46
2023-01-10T01:26:17.934Z,93.08
2023-01-10T01:28:44.578Z,92.31
2023-01-10T01:31:11.655Z,92.29
2023-01-10T01:33:38.696Z,91.67
2023-01-10T01:36:10.109Z,91.84
2023-01-10T01:38:41.163Z,91.58
2023-01-10T01:41:22.435Z,91.01
2023-01-10T01:44:00.538Z,92.54
2023-01-10T01:46:28.384Z,96.73
2023-01-10T01:48:55.321Z,99.40
2023-01-10T01:51:30.741Z,100.00
2023-01-10T01:54:06.337Z,100.00
2023-01-10T01:56:46.638Z,100.00
2023-01-10T01:59:18.841Z,100.00
2023-01-10T02:01:49.699Z,100.00
2023-01-10T02:06:51.607Z,100.00
2023-01-10T02:09:21.512Z,100.00
2023-01-10T02:11:48.342Z,100.00
2023-01-10T02:14:15.636Z,100.00
2023-01-10T02:16:42.693Z,100.00
2023-01-10T02:22:21.496Z,100.00
2023-01-10T02:25:04.924Z,99.81
2023-01-10T02:28:09.183Z,99.10
2023-01-10T02:30:36.005Z,98.73
2023-01-10T02:33:14.779Z,97.91
2023-01-10T02:36:10.405Z,97.64
2023-01-10T02:38:42.692Z,96.62
2023-01-10T02:41:15.673Z,97.92
2023-01-10T02:43:57.747Z,98.33
2023-01-10T02:46:30.606Z,98.64
2023-01-10T02:48:57.519Z,98.59
2023-01-10T02:51:29.880Z,97.35
2023-01-10T02:54:08.323Z,97.59
2023-01-10T02:56:48.280Z,97.87
2023-01-10T02:59:22.534Z,97.49
2023-01-10T03:02:22.518Z,96.94
2023-01-10T03:05:22.868Z,96.97
2023-01-10T03:08:13.957Z,98.16
2023-01-10T03:10:50.167Z,97.35
2023-01-10T03:13:22.643Z,97.00
2023-01-10T03:15:51.811Z,95.84
2023-01-10T03:18:22.516Z,94.74
2023-01-10T03:20:51.857Z,94.10
2023-01-10T03:25:50.501Z,94.71
2023-01-10T03:28:23.718Z,93.72
2023-01-10T03:31:01.664Z,95.03
2023-01-10T03:33:31.184Z,94.28
2023-01-10T03:36:22.629Z,95.50
2023-01-10T03:38:55.718Z,94.09
2023-01-10T03:41:40.209Z,93.67
2023-01-10T03:46:54.613Z,93.58
2023-01-10T03:49:22.592Z,92.37
2023-01-10T03:51:50.116Z,92.74
2023-01-10T03:54:17.477Z,92.50
2023-01-10T03:56:47.374Z,92.13
2023-01-10T03:59:14.383Z,91.46
2023-01-10T04:01:41.152Z,92.04
2023-01-10T04:04:08.101Z,92.70
2023-01-10T04:06:34.795Z,93.55
2023-01-10T04:09:01.662Z,92.56
2023-01-10T04:11:28.509Z,94.58
2023-01-10T04:13:55.539Z,93.32
2023-01-10T04:16:22.377Z,94.36
2023-01-10T04:18:49.108Z,93.82
2023-01-10T04:21:15.813Z,95.13
2023-01-10T04:23:42.785Z,95.03
2023-01-10T04:26:09.526Z,95.13
2023-01-10T04:28:36.316Z,95.02
2023-01-10T04:31:03.228Z,94.16
2023-01-10T04:33:30.293Z,94.98
2023-01-10T04:35:57.272Z,93.62
2023-01-10T04:38:23.989Z,94.71
2023-01-10T04:40:55.607Z,94.62
2023-01-10T04:43:23.865Z,94.24
2023-01-10T04:45:50.998Z,94.45
2023-01-10T04:48:18.547Z,92.47
2023-01-10T04:50:52.659Z,92.63
2023-01-10T04:53:20.055Z,91.77
2023-01-10T04:55:47.618Z,92.52
2023-01-10T04:58:14.572Z,92.26
2023-01-10T05:00:41.929Z,91.67
2023-01-10T05:03:08.720Z,91.52
2023-01-10T05:05:35.506Z,90.40
2023-01-10T05:08:02.263Z,90.31
2023-01-10T05:10:29.014Z,90.45
2023-01-10T05:12:55.690Z,90.04
2023-01-10T05:15:23.364Z,90.83
2023-01-10T05:17:51.463Z,89.83
2023-01-10T05:20:18.402Z,90.72
2023-01-10T05:22:46.034Z,90.70
2023-01-10T05:25:12.915Z,89.63
2023-01-10T05:27:43.086Z,89.68
2023-01-10T05:30:13.529Z,89.60
2023-01-10T05:32:40.654Z,90.06
2023-01-10T05:35:08.077Z,89.88
2023-01-10T05:37:34.765Z,90.15
2023-01-10T05:40:01.413Z,90.23
2023-01-10T05:42:28.152Z,90.46
2023-01-10T05:44:54.934Z,90.57
2023-01-10T05:47:21.630Z,90.80
2023-01-10T05:49:48.516Z,90.77
2023-01-10T05:52:15.327Z,90.89
2023-01-10T05:54:42.116Z,91.42
2023-01-10T05:57:08.903Z,91.49
2023-01-10T05:59:35.630Z,91.31
2023-01-10T06:02:02.393Z,90.69
2023-01-10T06:04:29.233Z,91.59
2023-01-10T06:06:58.344Z,91.18
2023-01-10T06:09:25.042Z,90.53
2023-01-10T06:11:51.718Z,91.10
2023-01-10T06:14:23.631Z,89.04
2023-01-10T06:16:50.268Z,88.31
2023-01-10T06:19:17.040Z,88.70
2023-01-10T06:21:43.854Z,87.96
2023-01-10T06:24:10.901Z,89.19
2023-01-10T06:26:37.552Z,88.50
2023-01-10T06:29:04.505Z,87.99
2023-01-10T06:31:31.220Z,88.03
2023-01-10T06:33:57.921Z,87.77
2023-01-10T06:36:24.890Z,87.82
2023-01-10T06:38:51.733Z,88.08
2023-01-10T06:41:18.544Z,87.73
2023-01-10T06:43:47.369Z,87.24
2023-01-10T06:46:16.817Z,86.80
2023-01-10T06:48:45.755Z,86.71
2023-01-10T06:51:19.830Z,86.03
2023-01-10T06:53:46.801Z,85.58
2023-01-10T06:56:13.529Z,85.37
2023-01-10T06:58:40.282Z,85.21
2023-01-10T07:01:13.555Z,84.51
2023-01-10T07:03:41.009Z,84.89
2023-01-10T07:06:10.388Z,84.78
2023-01-10T07:08:42.364Z,84.67
2023-01-10T07:11:10.039Z,84.67
2023-01-10T07:13:37.215Z,84.62
2023-01-10T07:16:05.736Z,84.83
2023-01-10T07:18:34.284Z,84.11
2023-01-10T07:21:00.992Z,83.93
2023-01-10T07:23:27.813Z,83.57
2023-01-10T07:25:54.545Z,83.48
2023-01-10T07:30:47.605Z,84.48
2023-01-10T07:33:14.261Z,84.11
2023-01-10T07:35:41.130Z,84.56
2023-01-10T07:38:09.182Z,83.97
2023-01-10T07:40:35.911Z,83.71
2023-01-10T07:43:03.208Z,84.17
2023-01-10T07:45:30.827Z,83.97
2023-01-10T07:48:02.381Z,84.06
2023-01-10T07:50:30.999Z,84.06
2023-01-10T07:52:59.826Z,84.02
2023-01-10T07:55:27.254Z,83.36
2023-01-10T07:57:54.047Z,83.23
2023-01-10T08:02:47.595Z,82.87
2023-01-10T08:05:14.885Z,82.90
2023-01-10T08:07:42.212Z,82.50
2023-01-10T08:10:09.458Z,82.22
2023-01-10T08:12:36.322Z,82.60
2023-01-10T08:15:03.160Z,81.97
2023-01-10T08:17:32.812Z,82.48
2023-01-10T08:19:59.527Z,82.51
2023-01-10T08:22:26.192Z,83.35
2023-01-10T08:24:53.273Z,82.54
2023-01-10T08:27:20.069Z,82.36
2023-01-10T08:29:46.751Z,82.12
2023-01-10T08:32:13.437Z,82.18
2023-01-10T08:34:40.288Z,82.16
2023-01-10T08:37:06.964Z,81.35
2023-01-10T08:39:35.548Z,81.30
2023-01-10T08:42:02.299Z,81.55
2023-01-10T08:44:29.120Z,81.09
2023-01-10T08:46:56.984Z,81.17
2023-01-10T08:49:23.937Z,81.04
2023-01-10T08:51:50.682Z,79.51
2023-01-10T08:54:17.379Z,80.26
2023-01-10T08:56:44.091Z,80.18
2023-01-10T08:59:10.807Z,79.42
2023-01-10T09:01:37.635Z,79.54
2023-01-10T09:04:05.600Z,79.72
2023-01-10T09:06:32.392Z,78.58
2023-01-10T09:08:59.093Z,77.99
2023-01-10T09:11:25.947Z,78.23
2023-01-10T09:13:52.667Z,78.80
2023-01-10T09:16:19.513Z,77.65
2023-01-10T09:18:46.663Z,77.96
2023-01-10T09:21:13.383Z,78.15
2023-01-10T09:23:40.708Z,78.77
2023-01-10T09:26:07.536Z,77.66
2023-01-10T09:28:34.510Z,77.31
2023-01-10T09:31:04.392Z,77.21
2023-01-10T09:33:45.346Z,78.09
2023-01-10T09:36:15.675Z,77.60
2023-01-10T09:38:42.752Z,77.83
2023-01-10T09:41:22.990Z,77.71
2023-01-10T09:47:14.168Z,76.89
2023-01-10T09:49:56.748Z,77.56
2023-01-10T09:52:28.546Z,77.19
2023-01-10T09:54:59.267Z,76.92
2023-01-10T09:57:26.343Z,76.05
2023-01-10T09:59:54.730Z,77.78
2023-01-10T10:02:22.677Z,77.30
2023-01-10T10:05:09.414Z,76.61
2023-01-10T10:07:36.574Z,77.85
2023-01-10T10:10:05.968Z,76.58
2023-01-10T10:12:46.590Z,77.72
2023-01-10T10:15:13.224Z,79.08
2023-01-10T10:17:54.993Z,78.52
2023-01-10T10:20:22.775Z,78.23
2023-01-10T10:23:01.667Z,76.48
2023-01-10T10:25:56.028Z,75.79
2023-01-10T10:28:32.070Z,77.34
2023-01-10T10:31:22.975Z,78.27
2023-01-10T10:33:49.663Z,78.94
2023-01-10T10:36:21.769Z,79.86
2023-01-10T10:38:50.488Z,79.58
2023-01-10T10:41:21.765Z,79.56
2023-01-10T10:43:49.267Z,80.64
2023-01-10T10:46:20.245Z,80.14
2023-01-10T10:48:48.072Z,80.71
2023-01-10T10:51:22.747Z,79.89
2023-01-10T10:53:49.618Z,79.81
2023-01-10T10:56:19.952Z,79.38
2023-01-10T10:58:49.931Z,78.84
2023-01-10T11:01:17.567Z,78.94
2023-01-10T11:03:59.243Z,79.37
2023-01-10T11:06:27.898Z,77.82
2023-01-10T11:08:57.714Z,76.85
2023-01-10T11:11:29.295Z,75.47
2023-01-10T11:13:57.429Z,75.14
2023-01-10T11:16:31.289Z,73.61
2023-01-10T11:19:18.277Z,73.69
2023-01-10T11:21:52.497Z,72.36
2023-01-10T11:26:48.137Z,70.49
2023-01-10T11:29:22.818Z,70.05
2023-01-10T11:31:51.864Z,69.70
2023-01-10T11:34:22.846Z,69.97
2023-01-10T11:36:56.355Z,70.80
2023-01-10T11:39:23.231Z,69.78
2023-01-10T11:41:53.245Z,69.71
2023-01-10T11:44:22.788Z,69.96
2023-01-10T11:46:52.562Z,70.05
2023-01-10T11:49:21.824Z,70.06
2023-01-10T11:51:56.932Z,70.68
2023-01-10T11:54:26.532Z,70.26
2023-01-10T11:57:08.802Z,68.24
2023-01-10T11:59:35.879Z,67.94
2023-01-10T12:02:12.472Z,67.53
2023-01-10T12:04:45.235Z,67.50
2023-01-10T12:07:12.662Z,66.11
2023-01-10T12:09:43.490Z,66.27
2023-01-10T12:12:22.733Z,66.75
2023-01-10T12:14:50.749Z,66.72
2023-01-10T12:17:22.741Z,67.54
2023-01-10T12:19:53.314Z,66.25
2023-01-10T12:22:22.760Z,66.72
2023-01-10T12:24:52.341Z,67.11
2023-01-10T12:30:03.796Z,67.37
2023-01-10T12:32:38.669Z,67.15
2023-01-10T12:35:14.037Z,66.07
2023-01-10T12:37:48.679Z,66.74
2023-01-10T12:40:22.832Z,66.04
2023-01-10T12:43:16.312Z,66.40
2023-01-10T12:45:53.332Z,62.95
2023-01-10T12:48:21.846Z,63.22
2023-01-10T12:50:55.424Z,63.46
2023-01-10T12:53:31.583Z,63.27
2023-01-10T12:56:05.057Z,63.60
2023-01-10T12:58:44.069Z,63.72
2023-01-10T13:03:54.803Z,62.37
2023-01-10T13:06:22.881Z,56.40
2023-01-10T13:08:50.537Z,56.35
2023-01-10T13:13:57.094Z,65.15
2023-01-10T13:17:01.037Z,68.53
2023-01-10T13:19:28.781Z,69.19
2023-01-10T13:22:22.979Z,69.18
2023-01-10T13:25:00.988Z,70.12
2023-01-10T13:27:34.156Z,69.31
2023-01-10T13:30:02.843Z,66.24
2023-01-10T13:32:35.433Z,67.79
2023-01-10T13:35:17.720Z,67.54
2023-01-10T13:37:51.685Z,66.43
2023-01-10T13:40:21.856Z,66.40
2023-01-10T13:43:22.948Z,66.77
2023-01-10T13:46:15.571Z,63.43
2023-01-10T13:49:03.910Z,62.83
2023-01-10T13:51:31.545Z,64.46
2023-01-10T13:54:01.456Z,65.66
2023-01-10T13:56:39.811Z,67.44
2023-01-10T13:59:21.858Z,68.14
2023-01-10T14:02:13.491Z,70.43
2023-01-10T14:04:51.135Z,70.68
2023-01-10T14:07:23.061Z,71.05
2023-01-10T14:09:52.511Z,71.09
2023-01-10T14:12:22.879Z,71.39
2023-01-10T14:14:59.513Z,72.53
2023-01-10T14:17:31.619Z,72.71
2023-01-10T14:20:15.336Z,72.95
2023-01-10T14:22:57.032Z,72.12
2023-01-10T14:25:26.366Z,72.28
2023-01-10T14:27:54.373Z,72.82
2023-01-10T14:30:22.178Z,71.46
2023-01-10T14:32:52.586Z,71.52
2023-01-10T14:35:22.821Z,72.64
2023-01-10T14:37:57.604Z,71.07
2023-01-10T14:40:32.676Z,71.95
2023-01-10T14:43:04.178Z,71.86
2023-01-10T14:45:36.535Z,71.38
2023-01-10T14:48:23.768Z,71.57
2023-01-10T14:50:50.548Z,72.06
2023-01-10T14:53:22.903Z,72.29
2023-01-10T14:55:49.607Z,70.99
2023-01-10T14:58:18.143Z,71.35
2023-01-10T15:00:46.396Z,72.12
2023-01-10T15:05:51.238Z,71.97
2023-01-10T15:08:22.977Z,72.62
2023-01-10T15:10:52.418Z,72.27
2023-01-10T15:15:50.303Z,73.90
2023-01-10T15:18:43.488Z,74.65
2023-01-10T15:21:14.544Z,74.44
2023-01-10T15:23:44.403Z,74.83
2023-01-10T15:26:16.586Z,75.18
2023-01-10T15:28:49.359Z,75.15
2023-01-10T15:31:17.232Z,75.21
2023-01-10T15:33:47.213Z,75.83
2023-01-10T15:36:17.806Z,75.75
2023-01-10T15:38:47.836Z,76.31
2023-01-10T15:41:22.828Z,76.29
2023-01-10T15:43:50.355Z,77.32
2023-01-10T15:46:22.937Z,77.60
2023-01-10T15:49:01.668Z,77.89
2023-01-10T15:51:37.630Z,78.33
2023-01-10T15:56:53.116Z,79.02
2023-01-10T15:59:19.720Z,79.50
2023-01-10T16:01:57.965Z,80.11
2023-01-10T16:04:25.177Z,80.10
2023-01-10T16:06:55.092Z,80.69
2023-01-10T16:09:23.154Z,80.93
2023-01-10T16:12:12.001Z,81.80
2023-01-10T16:14:38.741Z,81.83
2023-01-10T16:17:06.085Z,81.87
2023-01-10T16:19:34.602Z,82.38
2023-01-10T16:22:02.069Z,83.06
2023-01-10T16:24:32.741Z,82.96
2023-01-10T16:27:03.350Z,83.83
2023-01-10T16:29:30.053Z,83.89
2023-01-10T16:31:56.923Z,83.77
2023-01-10T16:34:26.054Z,84.27
2023-01-10T16:36:53.348Z,84.71
2023-01-10T16:39:23.008Z,85.04
2023-01-10T16:42:08.629Z,84.33
2023-01-10T16:44:35.975Z,84.65
2023-01-10T16:47:04.378Z,84.92
2023-01-10T16:49:33.162Z,84.84
2023-01-10T16:52:00.208Z,84.55
2023-01-10T16:54:27.787Z,85.03
2023-01-10T16:56:54.536Z,85.42
2023-01-10T17:01:54.719Z,85.06
2023-01-10T17:04:23.123Z,85.13
2023-01-10T17:06:50.082Z,85.00
2023-01-10T17:09:23.016Z,85.76
2023-01-10T17:11:54.731Z,86.00
2023-01-10T17:16:48.938Z,86.42
2023-01-10T17:19:15.777Z,86.28
2023-01-10T17:21:42.482Z,86.55
2023-01-10T17:24:11.465Z,87.04
2023-01-10T17:26:38.280Z,87.49
2023-01-10T17:29:05.363Z,87.44
2023-01-10T17:31:32.142Z,87.90
2023-01-10T17:33:59.600Z,87.85
2023-01-10T17:36:30.024Z,87.94
2023-01-10T17:38:57.297Z,88.04
2023-01-10T17:41:24.190Z,87.78
2023-01-10T17:43:51.262Z,87.55
2023-01-10T17:46:18.311Z,88.00
2023-01-10T17:48:45.381Z,87.55
2023-01-10T17:51:13.443Z,87.25
2023-01-10T17:53:41.256Z,86.70
2023-01-10T17:56:08.880Z,87.08
2023-01-10T17:58:36.049Z,87.40
2023-01-10T18:01:03.001Z,87.33
2023-01-10T18:03:29.808Z,87.09
2023-01-10T18:05:58.975Z,87.36
2023-01-10T18:08:26.624Z,86.86
2023-01-10T18:10:59.648Z,88.15
2023-01-10T18:13:30.264Z,87.40
2023-01-10T18:15:57.296Z,87.46
2023-01-10T18:18:26.788Z,87.68
2023-01-10T18:20:56.166Z,87.68
2023-01-10T18:23:24.991Z,87.36
2023-01-10T18:26:02.601Z,87.43
2023-01-10T18:28:40.942Z,87.80
2023-01-10T18:31:17.245Z,87.61
2023-01-10T18:33:46.450Z,87.69
2023-01-10T18:36:19.340Z,87.51
2023-01-10T18:38:46.819Z,87.64
2023-01-10T18:41:14.867Z,88.42
2023-01-10T18:43:41.982Z,87.33
2023-01-10T18:46:14.326Z,87.67
2023-01-10T18:48:41.216Z,87.88
2023-01-10T18:51:10.125Z,87.66
2023-01-10T18:53:36.834Z,87.81
2023-01-10T18:56:05.143Z,87.80
2023-01-10T18:58:34.772Z,87.60
2023-01-10T19:01:16.186Z,87.26
2023-01-10T19:03:43.545Z,87.02
2023-01-10T19:06:12.736Z,86.68
2023-01-10T19:08:40.076Z,86.61
2023-01-10T19:11:13.882Z,86.96
2023-01-10T19:13:42.267Z,86.08
2023-01-10T19:16:13.550Z,86.64
2023-01-10T19:18:40.806Z,85.77
2023-01-10T19:21:13.445Z,85.63
2023-01-10T19:23:40.140Z,85.79
2023-01-10T19:26:07.117Z,85.89
2023-01-10T19:28:34.956Z,85.24
2023-01-10T19:31:04.854Z,84.86
2023-01-10T19:33:34.663Z,84.21
2023-01-10T19:36:08.097Z,83.68
2023-01-10T19:38:35.002Z,83.27
2023-01-10T19:41:02.078Z,83.09
2023-01-10T19:43:29.156Z,82.46
2023-01-10T19:45:56.158Z,82.97
2023-01-10T19:48:23.711Z,83.26
2023-01-10T19:50:50.440Z,81.97
2023-01-10T19:53:17.804Z,82.44
2023-01-10T19:55:44.737Z,82.27
2023-01-10T19:58:11.408Z,82.71
2023-01-10T20:00:38.117Z,82.53
2023-01-10T20:03:05.543Z,82.76
2023-01-10T20:05:35.206Z,82.59
2023-01-10T20:08:03.509Z,82.99
2023-01-10T20:10:30.362Z,82.33
2023-01-10T20:12:57.143Z,82.19
2023-01-10T20:15:24.039Z,82.67
2023-01-10T20:17:52.201Z,82.43
2023-01-10T20:22:48.214Z,81.97
2023-01-10T20:25:15.145Z,82.59
2023-01-10T20:27:42.023Z,81.91
2023-01-10T20:30:14.069Z,81.57
2023-01-10T20:32:41.420Z,82.10
2023-01-10T20:35:08.737Z,81.68
2023-01-10T20:37:35.418Z,81.71
2023-01-10T20:40:02.823Z,80.89
2023-01-10T20:42:33.323Z,80.71
2023-01-10T20:45:00.088Z,80.58
2023-01-10T20:47:27.309Z,80.63
2023-01-10T20:49:54.026Z,80.22
2023-01-10T20:54:47.969Z,79.75
2023-01-10T20:57:14.904Z,79.73
2023-01-10T20:59:41.829Z,79.86
2023-01-10T21:02:10.891Z,80.00
2023-01-10T21:04:37.723Z,79.37
2023-01-10T21:07:06.309Z,78.88
2023-01-10T21:09:33.238Z,78.82
2023-01-10T21:12:13.879Z,78.19
2023-01-10T21:14:47.871Z,78.98
2023-01-10T21:17:14.574Z,78.81
2023-01-10T21:19:41.219Z,78.49
2023-01-10T21:22:07.876Z,78.71
2023-01-10T21:24:34.639Z,77.79
2023-01-10T21:27:01.275Z,77.79
2023-01-10T21:29:27.918Z,77.49
2023-01-10T21:31:54.730Z,77.87
2023-01-10T21:36:48.160Z,77.62
2023-01-10T21:39:15.005Z,77.73
2023-01-10T21:42:00.513Z,77.89
2023-01-10T21:44:27.358Z,78.24
2023-01-10T21:46:54.366Z,77.86
2023-01-10T21:51:47.769Z,77.59
2023-01-10T21:54:14.627Z,76.88
2023-01-10T21:56:41.623Z,76.73
2023-01-10T21:59:08.315Z,77.29
2023-01-10T22:01:35.077Z,76.52
2023-01-10T22:04:01.932Z,76.40
2023-01-10T22:06:29.619Z,76.82
2023-01-10T22:08:56.581Z,77.21
2023-01-10T22:11:23.527Z,76.13
2023-01-10T22:13:52.854Z,75.90
2023-01-10T22:16:19.641Z,75.84
2023-01-10T22:18:46.466Z,75.69
2023-01-10T22:21:13.277Z,76.52
2023-01-10T22:23:43.265Z,76.41
2023-01-10T22:26:13.548Z,76.16
2023-01-10T22:28:40.576Z,76.08
2023-01-10T22:31:10.333Z,76.18
2023-01-10T22:33:38.178Z,75.42
2023-01-10T22:36:06.497Z,75.66
2023-01-10T22:38:34.224Z,75.86
2023-01-10T22:41:18.521Z,75.49
2023-01-10T22:43:46.071Z,75.16
2023-01-10T22:46:17.173Z,75.51
2023-01-10T22:48:44.310Z,76.05
2023-01-10T22:51:11.239Z,75.64
2023-01-10T22:53:37.932Z,74.83
2023-01-10T22:56:06.726Z,74.96
2023-01-10T22:58:33.585Z,75.11
2023-01-10T23:01:03.870Z,74.41
2023-01-10T23:03:30.870Z,73.52
2023-01-10T23:05:58.326Z,73.33
2023-01-10T23:08:26.758Z,72.97
2023-01-10T23:10:54.532Z,72.62
2023-01-10T23:13:23.105Z,72.24
2023-01-10T23:16:17.584Z,72.28
2023-01-10T23:18:44.372Z,72.14
2023-01-10T23:21:11.089Z,71.97
2023-01-10T23:23:37.814Z,72.04
2023-01-10T23:26:07.668Z,71.80
2023-01-10T23:28:40.171Z,72.33
2023-01-10T23:31:07.707Z,72.44
2023-01-10T23:33:34.639Z,73.07
2023-01-10T23:36:01.663Z,73.23
2023-01-10T23:38:28.879Z,74.14
2023-01-10T23:40:55.932Z,74.98
2023-01-10T23:43:23.118Z,75.00
2023-01-10T23:45:50.079Z,75.86
2023-01-10T23:48:17.417Z,76.57
2023-01-10T23:50:46.191Z,77.86
2023-01-10T23:53:12.890Z,78.55
2023-01-10T23:55:39.604Z,79.13
2023-01-10T23:58:06.377Z,79.94
